Chadstone Weather > Observations for 07/03/21

Select Day:



Observations
Time Temp Hum DP Wind Gust Dir Rain >9am Press
C % C kph kph mm hPa
00:00 15.1 83 12.2 0.0 0.0 N 0.0 996.6
00:10 14.9 84 12.2 0.0 0.0 N 0.0 996.1
00:20 14.7 84 12.0 0.0 0.0 N 0.0 996.1
00:30 14.5 84 11.8 0.0 0.0 N 0.0 996.2
00:40 14.4 85 11.9 0.0 0.0 N 0.0 996.1
00:50 14.5 85 12.0 0.2 2.5 N 0.0 996.4
01:00 14.5 85 12.0 0.1 2.5 N 0.0 996.1
01:10 14.5 85 12.0 0.1 2.5 N 0.0 996.1
01:20 14.3 85 11.8 0.0 0.0 N 0.0 996.2
01:30 13.9 86 11.6 0.0 0.0 N 0.0 995.9
01:40 13.8 86 11.5 0.0 0.0 N 0.0 995.7
01:50 13.6 87 11.5 0.0 0.0 N 0.0 995.8
02:00 13.5 87 11.4 0.0 0.0 N 0.0 995.5
02:10 13.3 87 11.2 0.0 0.0 N 0.0 995.5
02:20 13.2 87 11.1 0.0 1.1 NW 0.0 995.6
02:30 13.3 88 11.4 0.0 1.1 NW 0.0 995.4
02:40 13.3 88 11.4 0.0 1.1 N 0.0 995.4
02:50 13.3 88 11.4 0.1 2.5 N 0.0 995.2
03:00 13.4 88 11.5 0.9 3.6 NNW 0.0 995.3
03:10 13.4 88 11.5 0.3 3.6 NNW 0.0 995.2
03:20 13.4 88 11.5 0.1 2.5 N 0.0 995.3
03:30 13.2 88 11.3 0.0 1.1 N 0.0 995.1
03:40 13.2 88 11.3 0.0 0.0 N 0.0 995.1
03:50 13.0 88 11.1 0.0 0.0 N 0.0 994.9
04:00 13.0 88 11.1 0.0 1.1 N 0.0 995.0
04:10 13.0 89 11.2 0.0 2.5 N 0.0 995.0
04:20 13.0 89 11.2 0.0 1.1 N 0.0 995.4
04:30 13.2 89 11.4 0.3 3.6 N 0.0 994.9
04:40 13.2 89 11.4 0.0 1.1 N 0.0 994.8
04:50 13.2 89 11.4 0.0 2.5 N 0.0 995.0
05:00 13.2 90 11.6 0.0 2.5 N 0.0 994.8
05:10 13.2 90 11.6 0.0 2.5 N 0.0 994.7
05:20 13.1 90 11.5 0.0 1.1 N 0.0 994.7
05:30 13.0 90 11.4 0.1 2.5 N 0.0 994.6
05:40 13.0 90 11.4 0.0 2.5 N 0.0 994.5
05:50 12.9 90 11.3 0.0 2.5 N 0.0 994.6
06:00 12.9 90 11.3 0.1 3.6 N 0.0 994.7
06:10 12.9 91 11.5 1.5 5.0 N 0.0 994.6
06:20 12.8 91 11.4 0.6 3.6 N 0.0 994.8
06:30 12.7 91 11.3 0.4 5.0 NNW 0.0 994.9
06:40 12.7 91 11.3 0.6 3.6 N 0.0 994.8
06:50 12.6 91 11.2 0.5 3.6 N 0.0 994.9
07:00 12.6 91 11.2 0.1 2.5 N 0.0 995.0
07:10 12.6 91 11.2 0.2 3.6 N 0.0 995.1
07:20 12.6 91 11.2 0.1 2.5 N 0.0 995.1
07:30 12.6 92 11.3 0.2 3.6 N 0.0 995.2
07:40 12.6 92 11.3 0.3 2.5 N 0.0 995.5
07:50 12.7 92 11.4 0.0 2.5 N 0.0 995.5
08:00 12.9 92 11.6 1.0 5.0 N 0.0 995.7
08:10 13.2 93 12.1 0.3 5.0 N 0.0 995.8
08:20 13.5 93 12.4 0.2 3.6 NNW 0.0 996.3
08:30 13.8 93 12.7 0.5 3.6 N 0.0 996.0
08:40 14.1 92 12.8 1.4 3.6 N 0.0 996.0
08:50 14.5 92 13.2 1.0 6.1 NNW 0.0 996.0
09:00 14.7 91 13.3 1.5 6.1 N 0.0 996.2
09:10 15.0 90 13.4 2.7 7.2 N 0.0 996.1
09:20 15.3 90 13.7 1.7 6.1 N 0.0 995.9
09:30 15.6 89 13.8 2.2 6.1 N 0.0 995.6
09:40 16.0 87 13.8 2.1 7.2 NW 0.0 995.7
09:50 16.3 86 14.0 3.6 8.6 NW 0.0 995.7
10:00 16.5 85 14.0 3.5 7.2 NW 0.0 995.8
10:10 16.8 84 14.1 4.9 11.2 N 0.0 995.8
10:20 17.2 82 14.1 1.9 9.7 NNW 0.0 995.7
10:30 17.8 81 14.5 2.8 8.6 NNE 0.0 995.6
10:40 18.3 78 14.4 4.7 8.6 NNE 0.0 995.5
10:50 18.9 76 14.6 2.8 7.2 N 0.0 995.5
11:00 19.6 73 14.6 4.3 11.2 NNW 0.0 995.4
11:10 20.4 68 14.3 3.1 13.3 NNE 0.0 995.3
11:20 21.0 64 13.9 7.3 13.3 NNE 0.0 995.0
11:30 21.4 62 13.8 4.9 12.2 NNW 0.0 994.7
11:40 21.9 59 13.5 4.4 11.2 NNE 0.0 994.5
11:50 22.8 54 13.0 8.1 15.8 NNW 0.0 994.4
12:00 23.4 53 13.3 7.8 17.3 N 0.0 994.3
12:10 23.9 52 13.5 8.4 15.8 N 0.0 994.1
12:20 24.8 48 13.1 9.0 18.4 N 0.0 993.8
12:30 25.5 45 12.7 5.2 15.8 N 0.0 993.6
12:40 26.2 40 11.6 7.8 18.4 NNW 0.0 993.5
12:50 26.4 37 10.6 9.3 20.9 N 0.0 993.2
13:00 26.4 37 10.6 7.5 17.3 N 0.0 993.0
13:10 26.2 34 9.1 5.1 14.8 NW 0.0 993.0
13:20 26.1 35 9.5 3.9 8.6 N 0.0 992.8
13:30 26.2 33 8.7 5.4 15.8 NW 0.0 992.8
13:40 26.4 34 9.3 5.0 12.2 NNW 0.0 992.7
13:50 26.7 32 8.7 7.0 14.8 N 0.0 992.7
14:00 27.0 29 7.5 6.1 14.8 NNW 0.0 992.4
14:10 27.8 28 7.6 6.3 14.8 N 0.0 992.2
14:20 27.5 27 6.9 6.7 14.8 NNW 0.0 992.3
14:30 27.9 30 8.7 5.9 12.2 NW 0.0 992.2
14:40 28.3 30 9.1 5.7 12.2 WSW 0.0 992.1
14:50 28.6 29 8.8 1.5 9.7 SSW 0.0 992.0
15:00 29.0 27 8.1 4.2 12.2 WSW 0.0 991.7
15:10 29.0 26 7.6 5.8 15.8 W 0.0 991.9
15:20 28.8 28 8.5 2.2 11.2 WSW 0.0 991.8
15:30 28.6 28 8.3 1.2 7.2 SSW 0.0 991.6
15:40 28.6 28 8.3 2.0 8.6 SW 0.0 991.4
15:50 28.3 28 8.1 3.9 11.2 WSW 0.0 991.5
16:00 28.5 28 8.2 1.6 8.6 W 0.0 991.3
16:10 28.8 29 9.0 2.1 7.2 NW 0.0 991.3
16:20 28.9 28 8.6 6.2 11.2 NW 0.0 991.2
16:30 28.7 28 8.4 4.5 12.2 NNE 0.0 991.1
16:40 28.4 28 8.2 4.5 12.2 N 0.0 991.2
16:50 28.3 28 8.1 4.4 11.2 NW 0.0 991.2
17:00 28.3 28 8.1 0.8 7.2 NNW 0.0 991.0
17:10 28.2 29 8.5 2.0 5.0 NE 0.0 991.0
17:20 28.2 29 8.5 0.8 3.6 NE 0.0 991.0
17:30 28.1 29 8.4 1.6 7.2 E 0.0 991.0
17:40 27.9 30 8.7 2.2 6.1 S 0.0 990.9
17:50 27.7 31 9.1 3.4 11.2 SSE 0.0 990.9
18:00 27.9 31 9.2 4.0 11.2 SSE 0.0 990.9
18:10 27.9 29 8.2 5.5 12.2 SSE 0.0 991.0
18:20 27.1 32 9.0 5.2 15.8 SSW 0.0 991.1
18:30 26.4 33 8.9 4.6 15.8 SSW 0.0 991.2
18:40 25.9 37 10.1 5.1 15.8 SSE 0.0 991.4
18:50 25.2 44 12.1 2.7 15.8 S 0.0 991.5
19:00 24.8 48 13.1 2.7 12.2 S 0.0 991.4
19:10 24.7 49 13.3 3.7 12.2 S 0.0 991.6
19:20 24.6 50 13.5 7.3 20.9 SE 0.0 991.6
19:30 24.4 50 13.3 5.9 20.9 SSE 0.0 991.8
19:40 23.8 50 12.8 6.7 19.4 S 0.0 992.0
19:50 23.3 54 13.5 6.3 17.3 SE 0.0 992.1
20:00 22.9 57 13.9 8.5 17.3 S 0.0 992.3
20:10 22.6 57 13.7 10.7 20.9 S 0.0 992.5
20:20 22.5 58 13.8 7.1 15.8 SSE 0.0 992.6
20:30 22.2 57 13.3 6.4 13.3 S 0.0 992.6
20:40 22.0 56 12.8 5.3 14.8 SE 0.0 992.9
20:50 21.7 57 12.8 6.2 14.8 SE 0.0 993.3
21:00 21.5 57 12.6 4.9 13.3 S 0.0 993.5
21:10 21.4 57 12.5 4.1 13.3 SSE 0.0 993.6
21:20 21.2 56 12.1 4.8 12.2 S 0.0 993.6
21:30 21.1 57 12.3 1.7 8.6 SSW 0.0 994.0
21:40 21.0 58 12.4 0.8 8.6 SSE 0.0 995.0
21:50 20.9 61 13.1 0.5 3.6 S 0.0 995.5
22:00 20.8 61 13.0 0.4 7.2 S 0.0 995.7
22:10 20.8 60 12.8 5.0 12.2 S 0.0 995.8
22:20 20.8 60 12.8 1.9 9.7 S 0.0 995.9
22:30 20.6 60 12.6 2.2 7.2 S 0.0 996.0
22:40 20.6 61 12.8 1.1 6.1 S 0.0 994.9
22:50 20.4 61 12.6 1.1 8.6 SSW 0.0 995.2
23:00 20.2 58 11.7 0.2 6.1 S 0.0 995.8
23:10 20.2 61 12.5 0.0 2.5 S 0.0 994.8
23:20 20.1 61 12.4 0.4 6.1 S 0.0 994.8
23:30 20.2 63 12.9 0.3 3.6 SW 0.0 995.5
23:40 19.9 64 12.9 0.0 2.5 SW 0.0 994.6
23:50 19.9 64 12.9 0.4 5.0 SW 0.0 994.9